sensor_id;sensor_type;location;lat;lon;timestamp;P1;durP1;ratioP1;P2;durP2;ratioP2
8279;SDS011;8335;42.646;23.380;2022-08-19T00:00:58;7.40;;;5.97;;
8279;SDS011;8335;42.646;23.380;2022-08-19T00:03:24;9.05;;;5.82;;
8279;SDS011;8335;42.646;23.380;2022-08-19T00:05:51;7.32;;;6.00;;
8279;SDS011;8335;42.646;23.380;2022-08-19T00:08:18;6.70;;;6.10;;
8279;SDS011;8335;42.646;23.380;2022-08-19T00:10:45;7.25;;;6.25;;
8279;SDS011;8335;42.646;23.380;2022-08-19T00:13:12;6.72;;;5.93;;
8279;SDS011;8335;42.646;23.380;2022-08-19T00:15:40;8.15;;;6.18;;
8279;SDS011;8335;42.646;23.380;2022-08-19T00:18:11;6.38;;;5.65;;
8279;SDS011;8335;42.646;23.380;2022-08-19T00:20:37;6.65;;;5.95;;
8279;SDS011;8335;42.646;23.380;2022-08-19T00:23:05;6.20;;;5.63;;
8279;SDS011;8335;42.646;23.380;2022-08-19T00:25:32;7.20;;;6.50;;
8279;SDS011;8335;42.646;23.380;2022-08-19T00:28:01;7.43;;;6.20;;
8279;SDS011;8335;42.646;23.380;2022-08-19T00:30:29;7.57;;;5.95;;
8279;SDS011;8335;42.646;23.380;2022-08-19T00:32:56;6.80;;;6.10;;
8279;SDS011;8335;42.646;23.380;2022-08-19T00:35:25;7.47;;;6.45;;
8279;SDS011;8335;42.646;23.380;2022-08-19T00:37:52;7.90;;;5.70;;
8279;SDS011;8335;42.646;23.380;2022-08-19T00:40:20;6.78;;;6.07;;
8279;SDS011;8335;42.646;23.380;2022-08-19T00:42:47;8.85;;;5.95;;
8279;SDS011;8335;42.646;23.380;2022-08-19T00:45:15;8.55;;;6.10;;
8279;SDS011;8335;42.646;23.380;2022-08-19T00:47:44;7.38;;;6.10;;
8279;SDS011;8335;42.646;23.380;2022-08-19T00:50:13;8.32;;;6.20;;
8279;SDS011;8335;42.646;23.380;2022-08-19T00:52:44;8.98;;;6.28;;
8279;SDS011;8335;42.646;23.380;2022-08-19T00:55:14;7.10;;;5.93;;
8279;SDS011;8335;42.646;23.380;2022-08-19T00:57:48;7.47;;;6.75;;
8279;SDS011;8335;42.646;23.380;2022-08-19T01:00:19;7.78;;;6.70;;
8279;SDS011;8335;42.646;23.380;2022-08-19T01:02:47;7.85;;;6.43;;
8279;SDS011;8335;42.646;23.380;2022-08-19T01:05:16;9.07;;;7.38;;
8279;SDS011;8335;42.646;23.380;2022-08-19T01:07:47;7.15;;;5.85;;
8279;SDS011;8335;42.646;23.380;2022-08-19T01:10:17;7.50;;;6.30;;
8279;SDS011;8335;42.646;23.380;2022-08-19T01:12:48;7.20;;;6.50;;
8279;SDS011;8335;42.646;23.380;2022-08-19T01:15:16;8.20;;;6.20;;
8279;SDS011;8335;42.646;23.380;2022-08-19T01:17:47;9.32;;;7.10;;
8279;SDS011;8335;42.646;23.380;2022-08-19T01:20:17;8.70;;;6.50;;
8279;SDS011;8335;42.646;23.380;2022-08-19T01:22:49;12.23;;;6.15;;
8279;SDS011;8335;42.646;23.380;2022-08-19T01:25:19;7.47;;;6.45;;
8279;SDS011;8335;42.646;23.380;2022-08-19T01:27:48;7.00;;;6.32;;
8279;SDS011;8335;42.646;23.380;2022-08-19T01:30:17;7.00;;;6.13;;
8279;SDS011;8335;42.646;23.380;2022-08-19T01:32:46;8.65;;;6.53;;
8279;SDS011;8335;42.646;23.380;2022-08-19T01:35:13;7.53;;;6.63;;
8279;SDS011;8335;42.646;23.380;2022-08-19T01:37:48;7.95;;;6.45;;
8279;SDS011;8335;42.646;23.380;2022-08-19T01:40:17;8.20;;;6.90;;
8279;SDS011;8335;42.646;23.380;2022-08-19T01:42:46;7.38;;;6.43;;
8279;SDS011;8335;42.646;23.380;2022-08-19T01:45:13;7.65;;;6.78;;
8279;SDS011;8335;42.646;23.380;2022-08-19T01:47:40;7.78;;;6.57;;
8279;SDS011;8335;42.646;23.380;2022-08-19T01:50:07;9.45;;;7.20;;
8279;SDS011;8335;42.646;23.380;2022-08-19T01:52:35;8.70;;;6.68;;
8279;SDS011;8335;42.646;23.380;2022-08-19T01:55:04;8.70;;;7.28;;
8279;SDS011;8335;42.646;23.380;2022-08-19T01:57:32;7.70;;;6.82;;
8279;SDS011;8335;42.646;23.380;2022-08-19T01:59:59;8.32;;;7.53;;
8279;SDS011;8335;42.646;23.380;2022-08-19T02:02:28;9.07;;;7.10;;
8279;SDS011;8335;42.646;23.380;2022-08-19T02:04:55;7.80;;;7.00;;
8279;SDS011;8335;42.646;23.380;2022-08-19T02:07:22;7.57;;;6.80;;
8279;SDS011;8335;42.646;23.380;2022-08-19T02:09:49;7.10;;;6.40;;
8279;SDS011;8335;42.646;23.380;2022-08-19T02:12:17;8.02;;;7.05;;
8279;SDS011;8335;42.646;23.380;2022-08-19T02:14:43;8.75;;;7.15;;
8279;SDS011;8335;42.646;23.380;2022-08-19T02:17:10;7.38;;;6.68;;
8279;SDS011;8335;42.646;23.380;2022-08-19T02:19:37;7.47;;;6.68;;
8279;SDS011;8335;42.646;23.380;2022-08-19T02:22:04;7.78;;;6.97;;
8279;SDS011;8335;42.646;23.380;2022-08-19T02:24:31;9.32;;;7.25;;
8279;SDS011;8335;42.646;23.380;2022-08-19T02:26:58;10.73;;;7.07;;
8279;SDS011;8335;42.646;23.380;2022-08-19T02:29:26;9.18;;;6.78;;
8279;SDS011;8335;42.646;23.380;2022-08-19T02:31:53;8.40;;;6.70;;
8279;SDS011;8335;42.646;23.380;2022-08-19T02:34:19;7.80;;;6.97;;
8279;SDS011;8335;42.646;23.380;2022-08-19T02:36:46;7.97;;;7.07;;
8279;SDS011;8335;42.646;23.380;2022-08-19T02:39:13;9.65;;;6.50;;
8279;SDS011;8335;42.646;23.380;2022-08-19T02:41:39;10.77;;;7.03;;
8279;SDS011;8335;42.646;23.380;2022-08-19T02:44:06;7.53;;;6.70;;
8279;SDS011;8335;42.646;23.380;2022-08-19T02:46:35;7.90;;;7.15;;
8279;SDS011;8335;42.646;23.380;2022-08-19T02:49:03;7.15;;;6.45;;
8279;SDS011;8335;42.646;23.380;2022-08-19T02:51:33;7.95;;;7.15;;
8279;SDS011;8335;42.646;23.380;2022-08-19T02:54:01;7.40;;;6.47;;
8279;SDS011;8335;42.646;23.380;2022-08-19T02:56:28;9.60;;;6.95;;
8279;SDS011;8335;42.646;23.380;2022-08-19T02:58:56;8.77;;;6.40;;
8279;SDS011;8335;42.646;23.380;2022-08-19T03:01:24;7.82;;;6.20;;
8279;SDS011;8335;42.646;23.380;2022-08-19T03:03:53;10.65;;;7.35;;
8279;SDS011;8335;42.646;23.380;2022-08-19T03:06:21;10.38;;;7.22;;
8279;SDS011;8335;42.646;23.380;2022-08-19T03:08:49;9.23;;;7.05;;
8279;SDS011;8335;42.646;23.380;2022-08-19T03:11:18;7.78;;;6.93;;
8279;SDS011;8335;42.646;23.380;2022-08-19T03:13:46;7.30;;;6.60;;
8279;SDS011;8335;42.646;23.380;2022-08-19T03:16:14;9.88;;;7.05;;
8279;SDS011;8335;42.646;23.380;2022-08-19T03:18:41;9.50;;;7.00;;
8279;SDS011;8335;42.646;23.380;2022-08-19T03:21:16;7.50;;;6.80;;
8279;SDS011;8335;42.646;23.380;2022-08-19T03:23:43;10.90;;;7.65;;
8279;SDS011;8335;42.646;23.380;2022-08-19T03:26:10;7.97;;;6.95;;
8279;SDS011;8335;42.646;23.380;2022-08-19T03:28:39;9.98;;;7.38;;
8279;SDS011;8335;42.646;23.380;2022-08-19T03:31:07;8.90;;;7.38;;
8279;SDS011;8335;42.646;23.380;2022-08-19T03:33:36;7.70;;;6.97;;
8279;SDS011;8335;42.646;23.380;2022-08-19T03:36:06;7.63;;;6.93;;
8279;SDS011;8335;42.646;23.380;2022-08-19T03:38:36;9.13;;;7.43;;
8279;SDS011;8335;42.646;23.380;2022-08-19T03:41:05;10.90;;;7.80;;
8279;SDS011;8335;42.646;23.380;2022-08-19T03:43:34;8.10;;;6.80;;
8279;SDS011;8335;42.646;23.380;2022-08-19T03:46:03;11.68;;;7.15;;
8279;SDS011;8335;42.646;23.380;2022-08-19T03:48:31;12.15;;;7.18;;
8279;SDS011;8335;42.646;23.380;2022-08-19T03:50:59;11.82;;;7.15;;
8279;SDS011;8335;42.646;23.380;2022-08-19T03:53:26;8.63;;;7.30;;
8279;SDS011;8335;42.646;23.380;2022-08-19T03:55:56;8.63;;;6.80;;
8279;SDS011;8335;42.646;23.380;2022-08-19T03:58:25;8.77;;;7.65;;
8279;SDS011;8335;42.646;23.380;2022-08-19T04:00:52;7.80;;;7.00;;
8279;SDS011;8335;42.646;23.380;2022-08-19T04:03:19;8.93;;;6.28;;
8279;SDS011;8335;42.646;23.380;2022-08-19T04:05:46;8.52;;;7.18;;
8279;SDS011;8335;42.646;23.380;2022-08-19T04:08:13;9.93;;;6.40;;
8279;SDS011;8335;42.646;23.380;2022-08-19T04:10:45;7.32;;;6.55;;
8279;SDS011;8335;42.646;23.380;2022-08-19T04:13:14;11.68;;;7.07;;
8279;SDS011;8335;42.646;23.380;2022-08-19T04:15:42;8.50;;;6.47;;
8279;SDS011;8335;42.646;23.380;2022-08-19T04:18:11;6.95;;;6.30;;
8279;SDS011;8335;42.646;23.380;2022-08-19T04:20:39;8.25;;;6.30;;
8279;SDS011;8335;42.646;23.380;2022-08-19T04:23:07;6.95;;;5.70;;
8279;SDS011;8335;42.646;23.380;2022-08-19T04:25:35;9.60;;;5.55;;
8279;SDS011;8335;42.646;23.380;2022-08-19T04:28:03;8.85;;;5.85;;
8279;SDS011;8335;42.646;23.380;2022-08-19T04:30:31;7.35;;;6.28;;
8279;SDS011;8335;42.646;23.380;2022-08-19T04:33:04;8.85;;;6.32;;
8279;SDS011;8335;42.646;23.380;2022-08-19T04:35:34;6.40;;;5.80;;
8279;SDS011;8335;42.646;23.380;2022-08-19T04:38:02;6.82;;;6.13;;
8279;SDS011;8335;42.646;23.380;2022-08-19T04:40:29;7.28;;;6.55;;
8279;SDS011;8335;42.646;23.380;2022-08-19T04:43:13;9.35;;;5.80;;
8279;SDS011;8335;42.646;23.380;2022-08-19T04:45:42;9.32;;;6.25;;
8279;SDS011;8335;42.646;23.380;2022-08-19T04:48:09;8.15;;;6.25;;
8279;SDS011;8335;42.646;23.380;2022-08-19T04:50:39;7.18;;;6.28;;
8279;SDS011;8335;42.646;23.380;2022-08-19T04:53:07;6.32;;;5.55;;
8279;SDS011;8335;42.646;23.380;2022-08-19T04:55:34;8.13;;;5.50;;
8279;SDS011;8335;42.646;23.380;2022-08-19T04:58:01;7.80;;;6.32;;
8279;SDS011;8335;42.646;23.380;2022-08-19T05:00:28;10.07;;;6.68;;
8279;SDS011;8335;42.646;23.380;2022-08-19T05:02:56;9.05;;;6.70;;
8279;SDS011;8335;42.646;23.380;2022-08-19T05:05:23;6.80;;;5.72;;
8279;SDS011;8335;42.646;23.380;2022-08-19T05:07:50;8.98;;;5.85;;
8279;SDS011;8335;42.646;23.380;2022-08-19T05:10:17;8.90;;;5.63;;
8279;SDS011;8335;42.646;23.380;2022-08-19T05:12:44;7.25;;;5.85;;
8279;SDS011;8335;42.646;23.380;2022-08-19T05:15:11;10.15;;;6.03;;
8279;SDS011;8335;42.646;23.380;2022-08-19T05:17:38;8.93;;;6.25;;
8279;SDS011;8335;42.646;23.380;2022-08-19T05:20:26;10.18;;;5.22;;
8279;SDS011;8335;42.646;23.380;2022-08-19T05:23:11;6.53;;;5.85;;
8279;SDS011;8335;42.646;23.380;2022-08-19T05:25:40;10.75;;;5.90;;
8279;SDS011;8335;42.646;23.380;2022-08-19T05:28:08;8.65;;;6.25;;
8279;SDS011;8335;42.646;23.380;2022-08-19T05:30:34;13.52;;;5.93;;
8279;SDS011;8335;42.646;23.380;2022-08-19T05:33:01;9.65;;;6.30;;
8279;SDS011;8335;42.646;23.380;2022-08-19T05:35:29;8.35;;;5.22;;
8279;SDS011;8335;42.646;23.380;2022-08-19T05:37:57;6.55;;;5.47;;
8279;SDS011;8335;42.646;23.380;2022-08-19T05:40:23;7.10;;;5.70;;
8279;SDS011;8335;42.646;23.380;2022-08-19T05:42:50;9.90;;;5.07;;
8279;SDS011;8335;42.646;23.380;2022-08-19T05:45:20;10.07;;;5.47;;
8279;SDS011;8335;42.646;23.380;2022-08-19T05:47:47;8.13;;;5.20;;
8279;SDS011;8335;42.646;23.380;2022-08-19T05:50:14;7.18;;;5.15;;
8279;SDS011;8335;42.646;23.380;2022-08-19T05:52:46;8.73;;;5.55;;
8279;SDS011;8335;42.646;23.380;2022-08-19T05:55:13;10.48;;;6.68;;
8279;SDS011;8335;42.646;23.380;2022-08-19T05:57:39;9.55;;;7.60;;
8279;SDS011;8335;42.646;23.380;2022-08-19T06:00:07;12.32;;;7.20;;
8279;SDS011;8335;42.646;23.380;2022-08-19T06:02:35;9.73;;;5.78;;
8279;SDS011;8335;42.646;23.380;2022-08-19T06:05:03;11.65;;;5.57;;
8279;SDS011;8335;42.646;23.380;2022-08-19T06:07:34;10.02;;;5.45;;
8279;SDS011;8335;42.646;23.380;2022-08-19T06:10:03;16.10;;;12.45;;
8279;SDS011;8335;42.646;23.380;2022-08-19T06:12:31;20.30;;;18.13;;
8279;SDS011;8335;42.646;23.380;2022-08-19T06:15:00;19.80;;;12.85;;
8279;SDS011;8335;42.646;23.380;2022-08-19T06:17:29;5.43;;;4.40;;
8279;SDS011;8335;42.646;23.380;2022-08-19T06:19:56;6.07;;;4.50;;
8279;SDS011;8335;42.646;23.380;2022-08-19T06:22:23;6.47;;;4.75;;
8279;SDS011;8335;42.646;23.380;2022-08-19T06:24:50;6.22;;;4.60;;
8279;SDS011;8335;42.646;23.380;2022-08-19T06:27:19;7.65;;;4.55;;
8279;SDS011;8335;42.646;23.380;2022-08-19T06:29:46;6.32;;;4.68;;
8279;SDS011;8335;42.646;23.380;2022-08-19T06:32:14;7.15;;;6.45;;
8279;SDS011;8335;42.646;23.380;2022-08-19T06:34:42;5.85;;;4.32;;
8279;SDS011;8335;42.646;23.380;2022-08-19T06:37:10;10.75;;;4.82;;
8279;SDS011;8335;42.646;23.380;2022-08-19T06:39:38;10.93;;;5.13;;
8279;SDS011;8335;42.646;23.380;2022-08-19T06:42:07;7.38;;;5.07;;
8279;SDS011;8335;42.646;23.380;2022-08-19T06:44:39;14.07;;;4.75;;
8279;SDS011;8335;42.646;23.380;2022-08-19T06:47:08;9.10;;;5.15;;
8279;SDS011;8335;42.646;23.380;2022-08-19T06:49:36;9.73;;;4.78;;
8279;SDS011;8335;42.646;23.380;2022-08-19T06:52:03;10.45;;;4.90;;
8279;SDS011;8335;42.646;23.380;2022-08-19T06:54:31;13.35;;;5.28;;
8279;SDS011;8335;42.646;23.380;2022-08-19T06:56:59;10.60;;;5.38;;
8279;SDS011;8335;42.646;23.380;2022-08-19T06:59:27;9.07;;;5.05;;
8279;SDS011;8335;42.646;23.380;2022-08-19T07:01:59;8.23;;;5.07;;
8279;SDS011;8335;42.646;23.380;2022-08-19T07:04:31;11.57;;;4.53;;
8279;SDS011;8335;42.646;23.380;2022-08-19T07:07:00;10.63;;;5.00;;
8279;SDS011;8335;42.646;23.380;2022-08-19T07:09:28;8.23;;;4.35;;
8279;SDS011;8335;42.646;23.380;2022-08-19T07:11:55;7.03;;;4.90;;
8279;SDS011;8335;42.646;23.380;2022-08-19T07:14:23;6.63;;;4.78;;
8279;SDS011;8335;42.646;23.380;2022-08-19T07:16:52;7.30;;;4.72;;
8279;SDS011;8335;42.646;23.380;2022-08-19T07:19:23;6.88;;;4.50;;
8279;SDS011;8335;42.646;23.380;2022-08-19T07:21:51;10.25;;;4.93;;
8279;SDS011;8335;42.646;23.380;2022-08-19T07:24:19;7.10;;;4.85;;
8279;SDS011;8335;42.646;23.380;2022-08-19T07:26:49;9.85;;;4.70;;
8279;SDS011;8335;42.646;23.380;2022-08-19T07:29:16;8.13;;;5.20;;
8279;SDS011;8335;42.646;23.380;2022-08-19T07:31:44;6.03;;;4.70;;
8279;SDS011;8335;42.646;23.380;2022-08-19T07:34:11;11.07;;;5.10;;
8279;SDS011;8335;42.646;23.380;2022-08-19T07:36:41;8.35;;;5.45;;
8279;SDS011;8335;42.646;23.380;2022-08-19T07:39:10;7.70;;;4.60;;
8279;SDS011;8335;42.646;23.380;2022-08-19T07:41:38;8.07;;;4.70;;
8279;SDS011;8335;42.646;23.380;2022-08-19T07:44:05;13.32;;;5.10;;
8279;SDS011;8335;42.646;23.380;2022-08-19T07:46:33;12.20;;;5.20;;
8279;SDS011;8335;42.646;23.380;2022-08-19T07:49:02;10.30;;;4.93;;
8279;SDS011;8335;42.646;23.380;2022-08-19T07:51:30;9.50;;;4.72;;
8279;SDS011;8335;42.646;23.380;2022-08-19T07:53:58;8.90;;;4.65;;
8279;SDS011;8335;42.646;23.380;2022-08-19T07:56:25;11.23;;;5.05;;
8279;SDS011;8335;42.646;23.380;2022-08-19T07:58:52;11.65;;;4.95;;
8279;SDS011;8335;42.646;23.380;2022-08-19T08:01:20;8.07;;;4.93;;
8279;SDS011;8335;42.646;23.380;2022-08-19T08:03:51;6.85;;;4.47;;
8279;SDS011;8335;42.646;23.380;2022-08-19T08:06:36;10.98;;;6.32;;
8279;SDS011;8335;42.646;23.380;2022-08-19T08:09:23;10.75;;;7.00;;
8279;SDS011;8335;42.646;23.380;2022-08-19T08:11:52;9.80;;;5.05;;
8279;SDS011;8335;42.646;23.380;2022-08-19T08:14:21;9.82;;;4.80;;
8279;SDS011;8335;42.646;23.380;2022-08-19T08:16:50;8.27;;;4.63;;
8279;SDS011;8335;42.646;23.380;2022-08-19T08:19:17;6.00;;;4.70;;
8279;SDS011;8335;42.646;23.380;2022-08-19T08:21:46;10.98;;;4.47;;
8279;SDS011;8335;42.646;23.380;2022-08-19T08:24:13;8.52;;;4.53;;
8279;SDS011;8335;42.646;23.380;2022-08-19T08:26:42;12.45;;;5.35;;
8279;SDS011;8335;42.646;23.380;2022-08-19T08:29:10;14.73;;;5.57;;
8279;SDS011;8335;42.646;23.380;2022-08-19T08:31:38;9.80;;;5.35;;
8279;SDS011;8335;42.646;23.380;2022-08-19T08:34:06;7.90;;;5.50;;
8279;SDS011;8335;42.646;23.380;2022-08-19T08:36:35;10.10;;;5.15;;
8279;SDS011;8335;42.646;23.380;2022-08-19T08:39:06;10.45;;;4.70;;
8279;SDS011;8335;42.646;23.380;2022-08-19T08:41:34;10.93;;;4.90;;
8279;SDS011;8335;42.646;23.380;2022-08-19T08:44:12;6.35;;;4.32;;
8279;SDS011;8335;42.646;23.380;2022-08-19T08:46:43;6.82;;;4.50;;
8279;SDS011;8335;42.646;23.380;2022-08-19T08:49:16;7.40;;;3.95;;
8279;SDS011;8335;42.646;23.380;2022-08-19T08:51:51;4.28;;;3.80;;
8279;SDS011;8335;42.646;23.380;2022-08-19T08:54:25;11.07;;;3.97;;
8279;SDS011;8335;42.646;23.380;2022-08-19T08:56:56;6.00;;;3.65;;
8279;SDS011;8335;42.646;23.380;2022-08-19T08:59:26;6.20;;;4.30;;
8279;SDS011;8335;42.646;23.380;2022-08-19T09:01:57;12.35;;;4.53;;
8279;SDS011;8335;42.646;23.380;2022-08-19T09:04:24;8.55;;;4.47;;
8279;SDS011;8335;42.646;23.380;2022-08-19T09:06:53;12.60;;;5.05;;
8279;SDS011;8335;42.646;23.380;2022-08-19T09:09:24;13.88;;;4.68;;
8279;SDS011;8335;42.646;23.380;2022-08-19T09:12:00;9.85;;;4.18;;
8279;SDS011;8335;42.646;23.380;2022-08-19T09:14:37;8.23;;;4.10;;
8279;SDS011;8335;42.646;23.380;2022-08-19T09:17:12;8.30;;;4.03;;
8279;SDS011;8335;42.646;23.380;2022-08-19T09:19:46;5.35;;;3.67;;
8279;SDS011;8335;42.646;23.380;2022-08-19T09:22:16;5.72;;;3.88;;
8279;SDS011;8335;42.646;23.380;2022-08-19T09:24:46;6.10;;;4.43;;
8279;SDS011;8335;42.646;23.380;2022-08-19T09:27:13;7.03;;;3.80;;
8279;SDS011;8335;42.646;23.380;2022-08-19T09:29:42;7.13;;;3.55;;
8279;SDS011;8335;42.646;23.380;2022-08-19T09:32:14;6.57;;;3.20;;
8279;SDS011;8335;42.646;23.380;2022-08-19T09:34:40;4.30;;;3.45;;
8279;SDS011;8335;42.646;23.380;2022-08-19T09:37:08;5.90;;;3.50;;
8279;SDS011;8335;42.646;23.380;2022-08-19T09:39:35;5.20;;;3.10;;
8279;SDS011;8335;42.646;23.380;2022-08-19T09:42:02;8.07;;;3.63;;
8279;SDS011;8335;42.646;23.380;2022-08-19T09:44:29;6.30;;;3.72;;
8279;SDS011;8335;42.646;23.380;2022-08-19T09:47:00;8.88;;;3.53;;
8279;SDS011;8335;42.646;23.380;2022-08-19T09:49:26;4.80;;;3.35;;
8279;SDS011;8335;42.646;23.380;2022-08-19T09:51:53;3.80;;;3.42;;
8279;SDS011;8335;42.646;23.380;2022-08-19T09:54:21;6.95;;;3.03;;
8279;SDS011;8335;42.646;23.380;2022-08-19T09:56:48;7.82;;;3.20;;
8279;SDS011;8335;42.646;23.380;2022-08-19T09:59:14;5.22;;;3.75;;
8279;SDS011;8335;42.646;23.380;2022-08-19T10:01:41;8.40;;;3.20;;
8279;SDS011;8335;42.646;23.380;2022-08-19T10:04:10;4.50;;;3.42;;
8279;SDS011;8335;42.646;23.380;2022-08-19T10:06:37;8.23;;;3.35;;
8279;SDS011;8335;42.646;23.380;2022-08-19T10:09:08;8.95;;;3.60;;
8279;SDS011;8335;42.646;23.380;2022-08-19T10:11:36;6.65;;;3.45;;
8279;SDS011;8335;42.646;23.380;2022-08-19T10:14:05;5.07;;;3.28;;
8279;SDS011;8335;42.646;23.380;2022-08-19T10:16:33;4.82;;;3.50;;
8279;SDS011;8335;42.646;23.380;2022-08-19T10:19:02;6.90;;;4.03;;
8279;SDS011;8335;42.646;23.380;2022-08-19T10:21:31;4.10;;;3.22;;
8279;SDS011;8335;42.646;23.380;2022-08-19T10:23:59;8.70;;;3.95;;
8279;SDS011;8335;42.646;23.380;2022-08-19T10:26:29;3.67;;;3.38;;
8279;SDS011;8335;42.646;23.380;2022-08-19T10:28:59;4.95;;;3.63;;
8279;SDS011;8335;42.646;23.380;2022-08-19T10:31:27;6.15;;;4.07;;
8279;SDS011;8335;42.646;23.380;2022-08-19T10:33:55;6.70;;;4.30;;
8279;SDS011;8335;42.646;23.380;2022-08-19T10:36:24;5.25;;;3.53;;
8279;SDS011;8335;42.646;23.380;2022-08-19T10:38:54;5.97;;;3.83;;
8279;SDS011;8335;42.646;23.380;2022-08-19T10:41:24;5.18;;;3.67;;
8279;SDS011;8335;42.646;23.380;2022-08-19T10:43:52;5.25;;;3.63;;
8279;SDS011;8335;42.646;23.380;2022-08-19T10:46:21;9.30;;;3.67;;
8279;SDS011;8335;42.646;23.380;2022-08-19T10:48:49;4.45;;;3.90;;
8279;SDS011;8335;42.646;23.380;2022-08-19T10:51:16;6.57;;;3.40;;
8279;SDS011;8335;42.646;23.380;2022-08-19T10:54:02;11.02;;;4.43;;
8279;SDS011;8335;42.646;23.380;2022-08-19T10:56:30;7.05;;;3.88;;
8279;SDS011;8335;42.646;23.380;2022-08-19T10:59:15;6.55;;;3.90;;
8279;SDS011;8335;42.646;23.380;2022-08-19T11:01:43;6.53;;;3.85;;
8279;SDS011;8335;42.646;23.380;2022-08-19T11:04:11;9.00;;;4.20;;
8279;SDS011;8335;42.646;23.380;2022-08-19T11:06:38;4.97;;;3.90;;
8279;SDS011;8335;42.646;23.380;2022-08-19T11:09:07;5.30;;;3.95;;
8279;SDS011;8335;42.646;23.380;2022-08-19T11:11:37;7.35;;;4.13;;
8279;SDS011;8335;42.646;23.380;2022-08-19T11:14:06;4.47;;;3.88;;
8279;SDS011;8335;42.646;23.380;2022-08-19T11:16:33;5.35;;;4.10;;
8279;SDS011;8335;42.646;23.380;2022-08-19T11:19:00;5.00;;;3.72;;
8279;SDS011;8335;42.646;23.380;2022-08-19T11:21:27;6.80;;;3.88;;
8279;SDS011;8335;42.646;23.380;2022-08-19T11:23:57;6.57;;;4.43;;
8279;SDS011;8335;42.646;23.380;2022-08-19T11:26:27;6.82;;;4.10;;
8279;SDS011;8335;42.646;23.380;2022-08-19T11:28:55;6.72;;;4.10;;
8279;SDS011;8335;42.646;23.380;2022-08-19T11:31:23;5.70;;;4.18;;
8279;SDS011;8335;42.646;23.380;2022-08-19T11:33:51;5.22;;;4.30;;
8279;SDS011;8335;42.646;23.380;2022-08-19T11:36:19;5.95;;;4.35;;
8279;SDS011;8335;42.646;23.380;2022-08-19T11:38:47;5.10;;;4.00;;
8279;SDS011;8335;42.646;23.380;2022-08-19T11:41:15;6.32;;;4.50;;
8279;SDS011;8335;42.646;23.380;2022-08-19T11:43:45;6.20;;;4.03;;
8279;SDS011;8335;42.646;23.380;2022-08-19T11:46:13;5.97;;;4.30;;
8279;SDS011;8335;42.646;23.380;2022-08-19T11:48:42;7.00;;;4.10;;
8279;SDS011;8335;42.646;23.380;2022-08-19T11:51:10;6.82;;;4.50;;
8279;SDS011;8335;42.646;23.380;2022-08-19T11:53:38;7.03;;;4.47;;
8279;SDS011;8335;42.646;23.380;2022-08-19T11:56:06;10.98;;;4.25;;
8279;SDS011;8335;42.646;23.380;2022-08-19T11:58:33;6.65;;;4.38;;
8279;SDS011;8335;42.646;23.380;2022-08-19T12:01:04;9.52;;;4.68;;
8279;SDS011;8335;42.646;23.380;2022-08-19T12:03:32;5.45;;;4.15;;
8279;SDS011;8335;42.646;23.380;2022-08-19T12:06:02;7.68;;;4.90;;
8279;SDS011;8335;42.646;23.380;2022-08-19T12:08:30;9.82;;;4.88;;
8279;SDS011;8335;42.646;23.380;2022-08-19T12:10:57;5.90;;;4.22;;
8279;SDS011;8335;42.646;23.380;2022-08-19T12:13:25;11.50;;;4.85;;
8279;SDS011;8335;42.646;23.380;2022-08-19T12:15:52;5.43;;;4.15;;
8279;SDS011;8335;42.646;23.380;2022-08-19T12:18:21;6.38;;;4.25;;
8279;SDS011;8335;42.646;23.380;2022-08-19T12:20:47;5.65;;;4.50;;
8279;SDS011;8335;42.646;23.380;2022-08-19T12:23:17;6.70;;;4.93;;
8279;SDS011;8335;42.646;23.380;2022-08-19T12:25:45;8.82;;;4.53;;
8279;SDS011;8335;42.646;23.380;2022-08-19T12:28:16;6.45;;;4.80;;
8279;SDS011;8335;42.646;23.380;2022-08-19T12:30:44;10.70;;;4.68;;
8279;SDS011;8335;42.646;23.380;2022-08-19T12:33:11;7.68;;;4.97;;
8279;SDS011;8335;42.646;23.380;2022-08-19T12:35:40;4.97;;;4.30;;
8279;SDS011;8335;42.646;23.380;2022-08-19T12:38:09;8.07;;;4.97;;
8279;SDS011;8335;42.646;23.380;2022-08-19T12:40:35;6.35;;;4.43;;
8279;SDS011;8335;42.646;23.380;2022-08-19T12:43:05;6.70;;;4.78;;
8279;SDS011;8335;42.646;23.380;2022-08-19T12:45:31;5.05;;;4.45;;
8279;SDS011;8335;42.646;23.380;2022-08-19T12:47:58;5.68;;;4.43;;
8279;SDS011;8335;42.646;23.380;2022-08-19T12:50:25;9.65;;;5.20;;
8279;SDS011;8335;42.646;23.380;2022-08-19T12:52:54;7.45;;;4.70;;
8279;SDS011;8335;42.646;23.380;2022-08-19T12:55:21;6.13;;;4.68;;
8279;SDS011;8335;42.646;23.380;2022-08-19T12:57:47;8.80;;;5.10;;
8279;SDS011;8335;42.646;23.380;2022-08-19T13:00:16;9.27;;;5.20;;
8279;SDS011;8335;42.646;23.380;2022-08-19T13:02:46;8.02;;;4.53;;
8279;SDS011;8335;42.646;23.380;2022-08-19T13:05:16;7.68;;;4.70;;
8279;SDS011;8335;42.646;23.380;2022-08-19T13:07:47;7.75;;;5.00;;
8279;SDS011;8335;42.646;23.380;2022-08-19T13:10:16;7.13;;;4.78;;
8279;SDS011;8335;42.646;23.380;2022-08-19T13:12:45;7.95;;;5.22;;
8279;SDS011;8335;42.646;23.380;2022-08-19T13:15:14;6.95;;;4.63;;
8279;SDS011;8335;42.646;23.380;2022-08-19T13:17:46;7.97;;;4.72;;
8279;SDS011;8335;42.646;23.380;2022-08-19T13:23:36;10.23;;;5.15;;
8279;SDS011;8335;42.646;23.380;2022-08-19T13:32:58;6.43;;;4.60;;
8279;SDS011;8335;42.646;23.380;2022-08-19T13:35:59;10.10;;;5.00;;
8279;SDS011;8335;42.646;23.380;2022-08-19T13:40:02;10.75;;;5.18;;
8279;SDS011;8335;42.646;23.380;2022-08-19T13:42:31;6.53;;;5.10;;
8279;SDS011;8335;42.646;23.380;2022-08-19T13:45:19;8.10;;;5.07;;
8279;SDS011;8335;42.646;23.380;2022-08-19T13:48:19;10.35;;;5.13;;
8279;SDS011;8335;42.646;23.380;2022-08-19T13:50:57;8.85;;;4.90;;
8279;SDS011;8335;42.646;23.380;2022-08-19T13:53:39;6.50;;;4.90;;
8279;SDS011;8335;42.646;23.380;2022-08-19T13:56:35;7.25;;;4.88;;
8279;SDS011;8335;42.646;23.380;2022-08-19T14:02:38;8.13;;;5.00;;
8279;SDS011;8335;42.646;23.380;2022-08-19T14:08:20;9.25;;;5.03;;
8279;SDS011;8335;42.646;23.380;2022-08-19T14:11:15;10.75;;;5.50;;
8279;SDS011;8335;42.646;23.380;2022-08-19T14:14:00;9.25;;;4.97;;
8279;SDS011;8335;42.646;23.380;2022-08-19T14:19:55;9.10;;;5.15;;
8279;SDS011;8335;42.646;23.380;2022-08-19T14:22:54;6.63;;;4.78;;
8279;SDS011;8335;42.646;23.380;2022-08-19T14:26:02;8.40;;;5.18;;
8279;SDS011;8335;42.646;23.380;2022-08-19T14:28:51;7.15;;;5.32;;
8279;SDS011;8335;42.646;23.380;2022-08-19T14:31:18;7.00;;;4.93;;
8279;SDS011;8335;42.646;23.380;2022-08-19T14:33:50;8.63;;;5.25;;
8279;SDS011;8335;42.646;23.380;2022-08-19T14:36:17;8.48;;;5.35;;
8279;SDS011;8335;42.646;23.380;2022-08-19T14:38:44;6.60;;;5.22;;
8279;SDS011;8335;42.646;23.380;2022-08-19T14:41:12;8.43;;;5.63;;
8279;SDS011;8335;42.646;23.380;2022-08-19T14:43:42;7.45;;;4.97;;
8279;SDS011;8335;42.646;23.380;2022-08-19T14:46:11;11.63;;;5.28;;
8279;SDS011;8335;42.646;23.380;2022-08-19T14:48:38;6.82;;;5.22;;
8279;SDS011;8335;42.646;23.380;2022-08-19T14:51:06;6.18;;;5.35;;
8279;SDS011;8335;42.646;23.380;2022-08-19T14:53:33;8.55;;;4.90;;
8279;SDS011;8335;42.646;23.380;2022-08-19T14:56:00;6.43;;;4.18;;
8279;SDS011;8335;42.646;23.380;2022-08-19T14:58:28;9.80;;;4.50;;
8279;SDS011;8335;42.646;23.380;2022-08-19T15:00:55;8.82;;;5.05;;
8279;SDS011;8335;42.646;23.380;2022-08-19T15:03:23;11.15;;;4.70;;
8279;SDS011;8335;42.646;23.380;2022-08-19T15:05:50;19.35;;;5.63;;
8279;SDS011;8335;42.646;23.380;2022-08-19T15:08:19;11.40;;;6.05;;
8279;SDS011;8335;42.646;23.380;2022-08-19T15:10:49;12.95;;;5.20;;
8279;SDS011;8335;42.646;23.380;2022-08-19T15:13:17;7.55;;;4.82;;
8279;SDS011;8335;42.646;23.380;2022-08-19T15:15:43;7.57;;;5.50;;
8279;SDS011;8335;42.646;23.380;2022-08-19T15:18:10;18.13;;;10.95;;
8279;SDS011;8335;42.646;23.380;2022-08-19T15:20:38;15.48;;;11.95;;
8279;SDS011;8335;42.646;23.380;2022-08-19T15:23:05;14.85;;;8.90;;
8279;SDS011;8335;42.646;23.380;2022-08-19T15:25:33;9.27;;;5.63;;
8279;SDS011;8335;42.646;23.380;2022-08-19T15:28:00;6.38;;;5.15;;
8279;SDS011;8335;42.646;23.380;2022-08-19T15:30:28;21.13;;;14.75;;
8279;SDS011;8335;42.646;23.380;2022-08-19T15:32:55;9.75;;;5.22;;